createdAt,value
2018-05-18T06:02:32.799Z,9.20
2018-05-18T08:58:58.139Z,13.30
2018-05-18T17:38:46.474Z,18.30
2018-05-18T17:41:17.304Z,18.20
2018-05-18T17:43:46.229Z,18.10
2018-05-18T17:46:14.716Z,18.00
2018-05-18T18:13:13.072Z,17.00
2018-05-18T18:15:41.412Z,17.00
2018-05-18T18:18:12.669Z,16.90
2018-05-18T18:39:10.082Z,16.50
2018-05-18T18:41:38.027Z,16.40
2018-05-18T18:44:05.644Z,16.30
2018-05-18T18:46:33.368Z,16.20
2018-05-18T19:21:59.617Z,15.20
2018-05-18T19:24:27.364Z,15.10
2018-05-18T19:26:55.836Z,15.10
2018-05-18T19:29:24.164Z,15.00
2018-05-18T19:31:51.889Z,14.90
2018-05-18T20:44:34.273Z,13.30
2018-05-18T21:42:27.863Z,12.50
2018-05-18T21:44:55.499Z,12.50
2018-05-18T22:04:32.513Z,12.10
2018-05-18T22:07:00.273Z,12.00
2018-05-18T22:09:27.844Z,12.00
2018-05-18T22:11:55.487Z,12.00
2018-05-18T22:31:35.398Z,11.50
2018-05-18T22:34:03.617Z,11.50
2018-05-18T22:36:32.085Z,11.50
2018-05-18T22:39:02.116Z,11.40
2018-05-18T22:41:31.351Z,11.40
2018-05-18T22:43:58.995Z,11.40
2018-05-18T22:46:27.388Z,11.30
2018-05-18T22:48:54.967Z,11.20
2018-05-18T22:51:23.309Z,11.20
2018-05-18T22:53:51.729Z,11.10
2018-05-18T22:56:25.225Z,11.10
2018-05-18T22:58:53.948Z,11.10
2018-05-18T23:01:24.168Z,11.00
2018-05-18T23:03:55.204Z,11.00
2018-05-18T23:06:23.851Z,11.00
2018-05-18T23:08:52.557Z,11.00
2018-05-18T23:11:23.521Z,11.00
2018-05-18T23:14:14.162Z,11.00
2018-05-18T23:16:47.885Z,10.90
2018-05-18T23:19:17.646Z,10.90
2018-05-18T23:21:46.345Z,10.80
2018-05-18T23:24:14.092Z,10.90
2018-05-18T23:26:49.365Z,10.90
2018-05-18T23:29:16.980Z,10.90
2018-05-18T23:31:59.634Z,10.80
2018-05-18T23:34:32.352Z,10.80
2018-05-18T23:37:06.325Z,10.80
2018-05-18T23:39:35.930Z,10.80
2018-05-18T23:42:10.481Z,10.80
2018-05-18T23:44:56.132Z,10.80
2018-05-18T23:47:24.949Z,10.80
2018-05-18T23:49:55.133Z,10.70
